INFORMACIÓN METAR y TAF
METAR FOR EGPH
ADDS - METARS form results

(1144 UTC 26 November 2020)
Data provider http://aviationweather.gov/metar/data/
 
METAR text: EGPH 261120Z 26003KT 9999 SCT032 06/05 Q1020
Conditions at: EGPH (EDINBURGH AIRPOR, GB) observed 1120 UTC 26 November 2020
Temperature: 6.0°C (43°F)
Dewpoint: 5.0°C (41°F) [RH = 93%]
Pressure (altimeter): 30.12 inches Hg (1020.0 mb)
Winds: from the W (260 degrees) at 3 MPH (3 knots; 1.5 m/s)
Visibility: 6 or more miles (10+ km)
Ceiling: at least 12,000 feet AGL
Clouds: scattered clouds at 3200 feet AGL
Weather: no significant weather observed at this time

METAR text: EGPH 261050Z VRB02KT 9999 BKN032 06/05 Q1020
Conditions at: EGPH (EDINBURGH AIRPOR, GB) observed 1050 UTC 26 November 2020
Temperature: 6.0°C (43°F)
Dewpoint: 5.0°C (41°F) [RH = 93%]
Pressure (altimeter): 30.12 inches Hg (1020.0 mb)
Winds: variable direction winds at 2 MPH (2 knots; 1.0 m/s)
Visibility: 6 or more miles (10+ km)
Ceiling: 3200 feet AGL
Clouds: broken clouds at 3200 feet AGL
Weather: no significant weather observed at this time

Forecast for: EGPH (EDINBURGH AIRPOR, GB)
Text: TAF EGPH 261100Z 2612/2712 25006KT 9999 SCT030
Forecast period: 1200 UTC 26 November 2020 to 1200 UTC 27 November 2020
Forecast type: FROM: standard forecast or significant change
Winds: from the WSW (250 degrees) at 7 MPH (6 knots; 3.1 m/s)
Visibility: 6 or more miles (10+ km)
Ceiling: at least 12,000 feet AGL
Clouds: scattered clouds at 3000 feet AGL
Weather: no significant weather forecast for this period
Text: PROB30
Forecast period: 1700 UTC 26 November 2020 to 1000 UTC 27 November 2020
Forecast type: TEMPORARY: The following changes expected for less than half the time period
Visibility: 2.49 miles (4.01 km)
Ceiling: unknown
Clouds: missing
Weather: BR MIFG  (mist, shallow fog)

 MAPA DE AEROPUERTO

 INFORMACIÓN DE PISTA
Pista 06 Longitud 8400 ft Ancho 150 ft
Elevación 110 ft Umbral desplazado 700 ft Rumbo de pista 59
Pista 24 Longitud 8400 ft Ancho 150 ft
Elevación 100 ft Umbral desplazado 700 ft Rumbo de pista 239
Pista 08 Longitud 2621 ft Ancho 150 ft
Elevación 100 ft Umbral desplazado 0 ft Rumbo de pista 70
Pista 26 Longitud 2621 ft Ancho 150 ft
Elevación 110 ft Umbral desplazado 0 ft Rumbo de pista 250
Pista 12 Longitud 5730 ft Ancho 150 ft
Elevación 99 ft Umbral desplazado 0 ft Rumbo de pista 119
Pista 30 Longitud 5730 ft Ancho 150 ft
Elevación 134 ft Umbral desplazado 204 ft Rumbo de pista 299

 FRECUANCIAS DEL AEROPUERTO
Tipo APP Nombre APP Frecuencia 121.2 MHZ
Tipo ATIS Nombre ATIS Frecuencia 131.35 MHZ
Tipo GND Nombre GND Frecuencia 121.75 MHZ
Tipo TWR Nombre TWR Frecuencia 118.7 MHZ

 RADIO AYUDAS DEL AEROPUERTO
Tipo NDB Nombre Edinburgh Frecuencia 341 KHZ
Tipo NDB Nombre Edinburgh Frecuencia 368 KHZ



Powered by Virtual Airlines Manager [v2.6.2]